Neptune Voyager — C6FU7 — position and weather

sailwx.info

Track history (hours):
 
Tides and Currents Weather Stations Pressure Air Temp Water Temp Dewpoint Dewpoint Depression Visibility Wind Speed Wind Dir Waves Ship Positions

Neptune Voyager

Last reported at 2017-Jan-20 19:31 UTC. Time now 2017-Jan-20 20:14 UTC.
Position N 45°38' E 013°41'.

Type: Ship. MMSI: 311482000.

Date/timePositionNaut miles runAvg speedWind from/ knotsBaromVisibWave heightAir tempDewpointWater temp
2017-Jan-20 19:31N 45°38' E 013°41'0 0.0
2017-Jan-20 18:31N 45°38' E 013°41'0 0.0
2017-Jan-20 17:28N 45°38' E 013°41'0 0.0
2017-Jan-20 16:31N 45°38' E 013°41'0 0.0
2017-Jan-20 15:31N 45°38' E 013°41'0 0.0
2017-Jan-20 14:19N 45°38' E 013°41'0 0.0
2017-Jan-20 13:28N 45°37' E 013°41'0 0.0
2017-Jan-20 12:28N 45°37' E 013°41'0 0.0
2017-Jan-20 11:22N 45°37' E 013°41'0 0.0
2017-Jan-20 10:28N 45°37' E 013°41'0 0.0
2017-Jan-20 09:28N 45°37' E 013°41'0 0.0
2017-Jan-20 08:31N 45°37' E 013°41'0 0.0
2017-Jan-20 07:28N 45°37' E 013°41'0 0.0
2017-Jan-20 06:28N 45°37' E 013°41'0 0.0
2017-Jan-20 05:16N 45°37' E 013°41'0 0.0
2017-Jan-20 04:28N 45°37' E 013°41'0 0.0
2017-Jan-20 03:28N 45°37' E 013°41'0 0.0
2017-Jan-20 02:25N 45°38' E 013°41'0 0.0
2017-Jan-20 01:31N 45°38' E 013°41'0 0.0
2017-Jan-20 00:28N 45°38' E 013°41'0 0.0
2017-Jan-19 23:28N 45°38' E 013°41'2 1.7
2017-Jan-19 22:33N 45°37' E 013°39'8 8.3
2017-Jan-19 21:33N 45°33' E 013°28'9 8.9
2017-Jan-19 20:33N 45°28' E 013°18'1010.0
2017-Jan-19 19:33N 45°20' E 013°10'1313.0
2017-Jan-19 18:33N 45°07' E 013°16'1313.0
2017-Jan-19 17:33N 44°56' E 013°24'1312.7
2017-Jan-19 16:33N 44°45' E 013°33'1212.5
2017-Jan-19 15:33N 44°34' E 013°42'1412.3
2017-Jan-19 14:27N 44°23' E 013°53'485 9.5
2017-Jan-17 11:33N 36°19' E 014°39'1413.8
2017-Jan-17 10:33N 36°19' E 014°22'1413.8
2017-Jan-17 09:33N 36°19' E 014°05'1313.5
2017-Jan-17 08:33N 36°25' E 013°49'1313.5
2017-Jan-17 07:33N 36°30' E 013°34'  
2017-Jan-12 11:05N 36°09' W 011°11'2113.3
2017-Jan-12 09:29N 36°14' W 011°36'2813.1
2017-Jan-12 07:19N 36°21' W 012°10'1012.7
2017-Jan-12 06:33N 36°23' W 012°22'  
Track history (hours):
 
Tides and Currents Weather Stations Pressure Air Temp Water Temp Dewpoint Dewpoint Depression Visibility Wind Speed Wind Dir Waves Ship Positions

Neptune Voyager

Last reported at 2017-Jan-20 19:31 UTC. Time now 2017-Jan-20 20:14 UTC.
Position N 45°38' E 013°41'.

Type: Ship. MMSI: 311482000.

Date/timePositionNaut miles runAvg speedWind from/ knotsBaromVisibWave heightAir tempDewpointWater temp
2017-Jan-20 19:31N 45°38' E 013°41'0 0.0
2017-Jan-20 18:31N 45°38' E 013°41'0 0.0
2017-Jan-20 17:28N 45°38' E 013°41'0 0.0
2017-Jan-20 16:31N 45°38' E 013°41'0 0.0
2017-Jan-20 15:31N 45°38' E 013°41'0 0.0
2017-Jan-20 14:19N 45°38' E 013°41'0 0.0
2017-Jan-20 13:28N 45°37' E 013°41'0 0.0
2017-Jan-20 12:28N 45°37' E 013°41'0 0.0
2017-Jan-20 11:22N 45°37' E 013°41'0 0.0
2017-Jan-20 10:28N 45°37' E 013°41'0 0.0
2017-Jan-20 09:28N 45°37' E 013°41'0 0.0
2017-Jan-20 08:31N 45°37' E 013°41'0 0.0
2017-Jan-20 07:28N 45°37' E 013°41'0 0.0
2017-Jan-20 06:28N 45°37' E 013°41'0 0.0
2017-Jan-20 05:16N 45°37' E 013°41'0 0.0
2017-Jan-20 04:28N 45°37' E 013°41'0 0.0
2017-Jan-20 03:28N 45°37' E 013°41'0 0.0
2017-Jan-20 02:25N 45°38' E 013°41'0 0.0
2017-Jan-20 01:31N 45°38' E 013°41'0 0.0
2017-Jan-20 00:28N 45°38' E 013°41'0 0.0
2017-Jan-19 23:28N 45°38' E 013°41'2 1.7
2017-Jan-19 22:33N 45°37' E 013°39'8 8.3
2017-Jan-19 21:33N 45°33' E 013°28'9 8.9
2017-Jan-19 20:33N 45°28' E 013°18'1010.0
2017-Jan-19 19:33N 45°20' E 013°10'1313.0
2017-Jan-19 18:33N 45°07' E 013°16'1313.0
2017-Jan-19 17:33N 44°56' E 013°24'1312.7
2017-Jan-19 16:33N 44°45' E 013°33'1212.5
2017-Jan-19 15:33N 44°34' E 013°42'1412.3
2017-Jan-19 14:27N 44°23' E 013°53'485 9.5
2017-Jan-17 11:33N 36°19' E 014°39'1413.8
2017-Jan-17 10:33N 36°19' E 014°22'1413.8
2017-Jan-17 09:33N 36°19' E 014°05'1313.5
2017-Jan-17 08:33N 36°25' E 013°49'1313.5
2017-Jan-17 07:33N 36°30' E 013°34'  
2017-Jan-12 11:05N 36°09' W 011°11'2113.3
2017-Jan-12 09:29N 36°14' W 011°36'2813.1
2017-Jan-12 07:19N 36°21' W 012°10'1012.7
2017-Jan-12 06:33N 36°23' W 012°22'  

Dump ship's entire track history